sensor_id;sensor_type;location;lat;lon;timestamp;P1;durP1;ratioP1;P2;durP2;ratioP2
22863;SDS011;11599;49.882;8.680;2022-10-16T00:08:42;1.60;;;0.97;;
22863;SDS011;11599;49.882;8.680;2022-10-16T00:19:03;5.90;;;2.43;;
22863;SDS011;11599;49.882;8.680;2022-10-16T00:29:26;5.90;;;1.20;;
22863;SDS011;11599;49.882;8.680;2022-10-16T00:39:48;3.30;;;1.03;;
22863;SDS011;11599;49.882;8.680;2022-10-16T00:50:11;2.07;;;0.90;;
22863;SDS011;11599;49.882;8.680;2022-10-16T01:00:34;0.80;;;0.47;;
22863;SDS011;11599;49.882;8.680;2022-10-16T01:10:59;0.70;;;0.53;;
22863;SDS011;11599;49.882;8.680;2022-10-16T01:21:24;2.40;;;0.70;;
22863;SDS011;11599;49.882;8.680;2022-10-16T01:31:50;2.80;;;0.43;;
22863;SDS011;11599;49.882;8.680;2022-10-16T01:42:16;2.87;;;0.50;;
22863;SDS011;11599;49.882;8.680;2022-10-16T01:52:42;1.47;;;0.50;;
22863;SDS011;11599;49.882;8.680;2022-10-16T02:03:05;0.40;;;0.40;;
22863;SDS011;11599;49.882;8.680;2022-10-16T02:13:29;0.97;;;0.70;;
22863;SDS011;11599;49.882;8.680;2022-10-16T02:23:54;1.17;;;0.80;;
22863;SDS011;11599;49.882;8.680;2022-10-16T02:34:18;1.20;;;0.80;;
22863;SDS011;11599;49.882;8.680;2022-10-16T02:44:42;2.07;;;1.10;;
22863;SDS011;11599;49.882;8.680;2022-10-16T02:55:05;1.80;;;1.20;;
22863;SDS011;11599;49.882;8.680;2022-10-16T03:05:27;2.67;;;1.60;;
22863;SDS011;11599;49.882;8.680;2022-10-16T03:15:50;6.20;;;1.87;;
22863;SDS011;11599;49.882;8.680;2022-10-16T03:26:12;4.80;;;1.87;;
22863;SDS011;11599;49.882;8.680;2022-10-16T03:36:35;2.53;;;1.83;;
22863;SDS011;11599;49.882;8.680;2022-10-16T03:46:56;3.17;;;2.40;;
22863;SDS011;11599;49.882;8.680;2022-10-16T03:57:19;3.37;;;1.77;;
22863;SDS011;11599;49.882;8.680;2022-10-16T04:07:41;2.90;;;1.83;;
22863;SDS011;11599;49.882;8.680;2022-10-16T04:18:04;4.27;;;2.10;;
22863;SDS011;11599;49.882;8.680;2022-10-16T04:28:26;4.57;;;2.17;;
22863;SDS011;11599;49.882;8.680;2022-10-16T04:38:49;3.47;;;2.30;;
22863;SDS011;11599;49.882;8.680;2022-10-16T04:49:10;3.67;;;2.17;;
22863;SDS011;11599;49.882;8.680;2022-10-16T04:59:33;2.43;;;1.83;;
22863;SDS011;11599;49.882;8.680;2022-10-16T05:09:54;2.73;;;1.60;;
22863;SDS011;11599;49.882;8.680;2022-10-16T05:20:17;2.10;;;1.47;;
22863;SDS011;11599;49.882;8.680;2022-10-16T05:30:39;2.43;;;1.70;;
22863;SDS011;11599;49.882;8.680;2022-10-16T05:41:02;1.83;;;1.40;;
22863;SDS011;11599;49.882;8.680;2022-10-16T05:51:26;3.40;;;1.50;;
22863;SDS011;11599;49.882;8.680;2022-10-16T06:01:49;2.30;;;1.70;;
22863;SDS011;11599;49.882;8.680;2022-10-16T06:12:11;1.83;;;1.30;;
22863;SDS011;11599;49.882;8.680;2022-10-16T06:22:34;1.73;;;1.33;;
22863;SDS011;11599;49.882;8.680;2022-10-16T06:32:56;1.60;;;1.30;;
22863;SDS011;11599;49.882;8.680;2022-10-16T06:43:19;3.43;;;1.30;;
22863;SDS011;11599;49.882;8.680;2022-10-16T06:53:42;5.60;;;1.40;;
22863;SDS011;11599;49.882;8.680;2022-10-16T07:04:05;2.53;;;1.20;;
22863;SDS011;11599;49.882;8.680;2022-10-16T07:14:27;3.67;;;1.20;;
22863;SDS011;11599;49.882;8.680;2022-10-16T07:24:51;4.00;;;1.40;;
22863;SDS011;11599;49.882;8.680;2022-10-16T07:35:13;1.60;;;1.00;;
22863;SDS011;11599;49.882;8.680;2022-10-16T07:45:35;3.00;;;1.47;;
22863;SDS011;11599;49.882;8.680;2022-10-16T07:55:57;4.83;;;1.30;;
22863;SDS011;11599;49.882;8.680;2022-10-16T08:06:21;3.87;;;1.00;;
22863;SDS011;11599;49.882;8.680;2022-10-16T08:16:42;3.13;;;1.43;;
22863;SDS011;11599;49.882;8.680;2022-10-16T08:27:05;2.57;;;1.30;;
22863;SDS011;11599;49.882;8.680;2022-10-16T09:41:13;2.00;;;1.00;;
22863;SDS011;11599;49.882;8.680;2022-10-16T09:51:36;2.77;;;1.50;;
22863;SDS011;11599;49.882;8.680;2022-10-16T10:33:12;1.95;;;1.08;;
22863;SDS011;11599;49.882;8.680;2022-10-16T10:43:47;1.50;;;1.00;;
22863;SDS011;11599;49.882;8.680;2022-10-16T10:54:15;3.80;;;1.05;;
22863;SDS011;11599;49.882;8.680;2022-10-16T11:04:50;1.70;;;1.10;;
22863;SDS011;11599;49.882;8.680;2022-10-16T11:15:18;1.63;;;1.08;;
22863;SDS011;11599;49.882;8.680;2022-10-16T11:25:47;2.25;;;1.40;;
22863;SDS011;11599;49.882;8.680;2022-10-16T11:36:22;2.63;;;1.50;;
22863;SDS011;11599;49.882;8.680;2022-10-16T11:47:06;2.20;;;1.30;;
22863;SDS011;11599;49.882;8.680;2022-10-16T11:57:33;3.00;;;1.02;;
22863;SDS011;11599;49.882;8.680;2022-10-16T12:59:51;3.30;;;1.67;;
22863;SDS011;11599;49.882;8.680;2022-10-16T13:10:23;2.50;;;1.67;;
22863;SDS011;11599;49.882;8.680;2022-10-16T13:20:55;3.85;;;1.42;;
22863;SDS011;11599;49.882;8.680;2022-10-16T13:31:19;2.83;;;1.70;;
22863;SDS011;11599;49.882;8.680;2022-10-16T13:41:51;2.58;;;1.40;;
22863;SDS011;11599;49.882;8.680;2022-10-16T13:52:20;2.10;;;1.60;;
22863;SDS011;11599;49.882;8.680;2022-10-16T14:02:43;4.95;;;1.83;;
22863;SDS011;11599;49.882;8.680;2022-10-16T14:13:07;2.83;;;1.70;;
22863;SDS011;11599;49.882;8.680;2022-10-16T14:23:51;5.03;;;1.60;;
22863;SDS011;11599;49.882;8.680;2022-10-16T14:34:23;5.03;;;1.50;;
22863;SDS011;11599;49.882;8.680;2022-10-16T14:56:57;2.97;;;1.30;;
22863;SDS011;11599;49.882;8.680;2022-10-16T15:07:19;3.13;;;1.48;;
22863;SDS011;11599;49.882;8.680;2022-10-16T15:17:49;2.08;;;1.58;;
22863;SDS011;11599;49.882;8.680;2022-10-16T15:28:13;3.42;;;1.98;;
22863;SDS011;11599;49.882;8.680;2022-10-16T15:38:38;2.47;;;1.70;;
22863;SDS011;11599;49.882;8.680;2022-10-16T15:49:00;8.43;;;2.63;;
22863;SDS011;11599;49.882;8.680;2022-10-16T15:59:28;6.07;;;2.58;;
22863;SDS011;11599;49.882;8.680;2022-10-16T16:09:59;9.18;;;2.83;;
22863;SDS011;11599;49.882;8.680;2022-10-16T16:20:22;8.57;;;2.17;;
22863;SDS011;11599;49.882;8.680;2022-10-16T16:30:44;2.78;;;1.85;;
22863;SDS011;11599;49.882;8.680;2022-10-16T16:41:14;6.00;;;2.45;;
22863;SDS011;11599;49.882;8.680;2022-10-16T16:51:36;4.43;;;1.95;;
22863;SDS011;11599;49.882;8.680;2022-10-16T17:01:59;4.75;;;1.65;;
22863;SDS011;11599;49.882;8.680;2022-10-16T17:12:21;5.82;;;1.60;;
22863;SDS011;11599;49.882;8.680;2022-10-16T17:22:44;2.47;;;1.77;;
22863;SDS011;11599;49.882;8.680;2022-10-16T17:33:06;2.40;;;2.07;;
22863;SDS011;11599;49.882;8.680;2022-10-16T17:43:29;3.93;;;2.30;;
22863;SDS011;11599;49.882;8.680;2022-10-16T17:53:51;3.83;;;2.13;;
22863;SDS011;11599;49.882;8.680;2022-10-16T18:04:15;4.13;;;1.80;;
22863;SDS011;11599;49.882;8.680;2022-10-16T18:14:37;2.87;;;2.20;;
22863;SDS011;11599;49.882;8.680;2022-10-16T18:25:00;3.73;;;2.40;;
22863;SDS011;11599;49.882;8.680;2022-10-16T18:35:24;5.10;;;2.47;;
22863;SDS011;11599;49.882;8.680;2022-10-16T18:45:56;2.87;;;2.13;;
22863;SDS011;11599;49.882;8.680;2022-10-16T18:56:19;4.37;;;2.20;;
22863;SDS011;11599;49.882;8.680;2022-10-16T19:06:44;3.77;;;1.60;;
22863;SDS011;11599;49.882;8.680;2022-10-16T19:17:07;4.67;;;1.83;;
22863;SDS011;11599;49.882;8.680;2022-10-16T19:27:30;2.63;;;2.00;;
22863;SDS011;11599;49.882;8.680;2022-10-16T19:37:51;5.93;;;2.47;;
22863;SDS011;11599;49.882;8.680;2022-10-16T19:48:14;4.80;;;2.30;;
22863;SDS011;11599;49.882;8.680;2022-10-16T19:58:36;5.43;;;2.50;;
22863;SDS011;11599;49.882;8.680;2022-10-16T20:08:58;8.23;;;2.60;;
22863;SDS011;11599;49.882;8.680;2022-10-16T20:19:20;6.27;;;2.47;;
22863;SDS011;11599;49.882;8.680;2022-10-16T20:29:43;5.03;;;2.53;;
22863;SDS011;11599;49.882;8.680;2022-10-16T20:40:05;4.40;;;2.50;;
22863;SDS011;11599;49.882;8.680;2022-10-16T20:50:28;9.00;;;2.80;;
22863;SDS011;11599;49.882;8.680;2022-10-16T21:00:50;3.63;;;2.47;;
22863;SDS011;11599;49.882;8.680;2022-10-16T21:11:14;4.47;;;2.17;;
22863;SDS011;11599;49.882;8.680;2022-10-16T21:21:37;3.67;;;2.20;;
22863;SDS011;11599;49.882;8.680;2022-10-16T21:32:00;4.90;;;1.80;;
22863;SDS011;11599;49.882;8.680;2022-10-16T21:42:21;7.50;;;1.80;;
22863;SDS011;11599;49.882;8.680;2022-10-16T21:52:44;7.50;;;2.00;;
22863;SDS011;11599;49.882;8.680;2022-10-16T22:03:06;2.97;;;2.00;;
22863;SDS011;11599;49.882;8.680;2022-10-16T22:13:29;4.00;;;1.90;;
22863;SDS011;11599;49.882;8.680;2022-10-16T22:23:50;5.30;;;1.50;;
22863;SDS011;11599;49.882;8.680;2022-10-16T22:34:13;7.77;;;1.83;;
22863;SDS011;11599;49.882;8.680;2022-10-16T22:44:34;6.20;;;1.57;;
22863;SDS011;11599;49.882;8.680;2022-10-16T22:54:57;3.97;;;2.00;;
22863;SDS011;11599;49.882;8.680;2022-10-16T23:05:19;11.13;;;1.80;;
22863;SDS011;11599;49.882;8.680;2022-10-16T23:15:42;2.73;;;1.60;;
22863;SDS011;11599;49.882;8.680;2022-10-16T23:26:06;9.47;;;1.90;;
22863;SDS011;11599;49.882;8.680;2022-10-16T23:36:29;3.93;;;1.47;;
22863;SDS011;11599;49.882;8.680;2022-10-16T23:46:51;5.70;;;1.50;;
22863;SDS011;11599;49.882;8.680;2022-10-16T23:57:13;2.27;;;1.57;;
